createdAt,value
2018-03-06T00:02:27.245Z,60.89
2018-03-06T00:04:59.733Z,60.80
2018-03-06T00:07:32.246Z,60.76
2018-03-06T00:10:04.903Z,60.67
2018-03-06T00:12:37.573Z,60.66
2018-03-06T00:15:10.086Z,60.71
2018-03-06T00:17:42.707Z,60.78
2018-03-06T00:20:15.241Z,60.67
2018-03-06T00:22:47.753Z,60.73
2018-03-06T00:25:20.250Z,60.75
2018-03-06T00:27:52.767Z,60.82
2018-03-06T00:30:25.262Z,60.71
2018-03-06T00:32:57.771Z,60.73
2018-03-06T00:35:30.258Z,60.74
2018-03-06T00:38:03.012Z,60.67
2018-03-06T00:40:36.293Z,60.79
2018-03-06T00:43:08.968Z,60.85
2018-03-06T00:45:41.490Z,60.69
2018-03-06T00:48:14.007Z,60.69
2018-03-06T00:50:46.498Z,60.46
2018-03-06T00:53:19.009Z,60.53
2018-03-06T00:55:51.503Z,60.52
2018-03-06T00:58:24.035Z,60.58
2018-03-06T01:00:56.526Z,60.47
2018-03-06T01:03:29.035Z,60.62
2018-03-06T01:06:01.590Z,60.65
2018-03-06T01:08:34.194Z,60.68
2018-03-06T01:11:06.828Z,60.74
2018-03-06T01:13:39.454Z,60.60
2018-03-06T01:16:11.963Z,60.60
2018-03-06T01:18:44.558Z,60.47
2018-03-06T01:21:17.054Z,60.39
2018-03-06T01:23:49.566Z,60.41
2018-03-06T01:26:22.064Z,60.49
2018-03-06T01:28:54.591Z,60.62
2018-03-06T01:31:27.077Z,60.64
2018-03-06T01:33:59.586Z,60.68
2018-03-06T01:36:32.083Z,60.60
2018-03-06T01:39:04.726Z,60.57
2018-03-06T01:41:37.551Z,60.39
2018-03-06T01:44:10.166Z,60.49
2018-03-06T01:46:42.698Z,60.65
2018-03-06T01:49:15.226Z,60.53
2018-03-06T01:51:58.598Z,60.58
2018-03-06T01:54:31.109Z,60.49
2018-03-06T01:57:03.718Z,60.56
2018-03-06T01:59:36.788Z,60.92
2018-03-06T02:02:09.502Z,60.52
2018-03-06T02:04:42.109Z,60.86
2018-03-06T02:07:14.641Z,61.03
2018-03-06T02:09:47.162Z,60.93
2018-03-06T02:12:19.660Z,60.68
2018-03-06T02:14:52.200Z,60.64
2018-03-06T02:17:24.694Z,60.57
2018-03-06T02:19:57.202Z,60.80
2018-03-06T02:22:29.694Z,60.95
2018-03-06T02:25:02.214Z,60.88
2018-03-06T02:27:34.776Z,60.67
2018-03-06T02:30:07.472Z,60.60
2018-03-06T02:32:40.091Z,60.47
2018-03-06T02:35:12.660Z,60.59
2018-03-06T02:37:45.169Z,60.57
2018-03-06T02:40:17.689Z,60.49
2018-03-06T02:42:50.182Z,60.26
2018-03-06T02:45:22.695Z,60.34
2018-03-06T02:47:55.186Z,60.24
2018-03-06T02:50:27.699Z,60.29
2018-03-06T02:53:00.186Z,60.59
2018-03-06T02:55:32.754Z,60.48
2018-03-06T02:58:06.990Z,60.44
2018-03-06T03:00:39.863Z,60.54
2018-03-06T03:03:12.445Z,60.65
2018-03-06T03:05:44.986Z,60.64
2018-03-06T03:08:17.490Z,60.38
2018-03-06T03:10:49.994Z,60.42
2018-03-06T03:13:22.486Z,60.05
2018-03-06T03:15:55.000Z,60.60
2018-03-06T03:18:27.487Z,60.71
2018-03-06T03:21:00.001Z,60.58
2018-03-06T03:23:32.492Z,60.45
2018-03-06T03:26:05.109Z,60.29
2018-03-06T03:28:37.726Z,60.18
2018-03-06T03:31:10.367Z,60.22
2018-03-06T03:33:42.932Z,60.00
2018-03-06T03:36:15.564Z,60.16
2018-03-06T03:38:48.067Z,60.24
2018-03-06T03:41:20.585Z,60.07
2018-03-06T03:43:53.074Z,59.95
2018-03-06T03:46:25.604Z,60.18
2018-03-06T03:48:58.102Z,59.97
2018-03-06T03:51:30.626Z,60.09
2018-03-06T03:54:03.173Z,60.30
2018-03-06T03:56:36.078Z,60.71
2018-03-06T03:59:08.609Z,60.66
2018-03-06T04:01:41.157Z,60.62
2018-03-06T04:04:13.734Z,60.56
2018-03-06T04:06:46.262Z,60.20
2018-03-06T04:09:18.752Z,60.33
2018-03-06T04:11:51.266Z,60.57
2018-03-06T04:14:23.758Z,60.30
2018-03-06T04:16:56.299Z,59.89
2018-03-06T04:19:28.791Z,59.81
2018-03-06T04:22:01.302Z,59.76
2018-03-06T04:24:33.972Z,59.67
2018-03-06T04:27:06.758Z,59.39
2018-03-06T04:29:39.848Z,59.49
2018-03-06T04:32:12.565Z,59.45
2018-03-06T04:34:45.114Z,59.48
2018-03-06T04:37:17.690Z,59.43
2018-03-06T04:39:50.184Z,59.30
2018-03-06T04:42:22.692Z,59.09
2018-03-06T04:44:55.190Z,59.38
2018-03-06T04:47:27.723Z,59.46
2018-03-06T04:50:00.216Z,59.43
2018-03-06T04:52:32.738Z,59.34
2018-03-06T04:55:05.707Z,59.15
2018-03-06T04:57:38.267Z,59.11
2018-03-06T05:00:10.871Z,59.37
2018-03-06T05:02:43.464Z,59.39
2018-03-06T05:05:16.033Z,59.58
2018-03-06T05:07:48.556Z,59.55
2018-03-06T05:10:21.047Z,59.50
2018-03-06T05:12:53.573Z,59.48
2018-03-06T05:15:26.071Z,59.51
2018-03-06T05:17:58.582Z,59.65
2018-03-06T05:20:31.074Z,59.34
2018-03-06T05:23:03.693Z,59.36
2018-03-06T05:25:36.560Z,59.37
2018-03-06T05:28:09.190Z,59.39
2018-03-06T05:30:41.732Z,59.38
2018-03-06T05:33:14.321Z,59.41
2018-03-06T05:35:46.832Z,59.40
2018-03-06T05:38:19.602Z,59.48
2018-03-06T05:40:52.091Z,59.74
2018-03-06T05:43:24.599Z,59.89
2018-03-06T05:45:57.094Z,59.63
2018-03-06T05:48:29.605Z,59.70
2018-03-06T05:51:02.094Z,59.70
2018-03-06T05:53:34.912Z,59.77
2018-03-06T05:56:08.175Z,59.95
2018-03-06T05:58:40.737Z,59.94
2018-03-06T06:01:13.248Z,60.14
2018-03-06T06:03:45.844Z,60.51
2018-03-06T06:06:18.384Z,60.16
2018-03-06T06:08:50.910Z,59.65
2018-03-06T06:11:23.401Z,59.58
2018-03-06T06:13:55.914Z,59.87
2018-03-06T06:16:28.443Z,59.78
2018-03-06T06:19:00.939Z,59.84
2018-03-06T06:21:33.888Z,59.75
2018-03-06T06:24:06.680Z,59.81
2018-03-06T06:26:39.251Z,59.79
2018-03-06T06:29:11.913Z,59.52
2018-03-06T06:31:44.428Z,59.56
2018-03-06T06:34:16.974Z,59.30
2018-03-06T06:36:49.462Z,59.19
2018-03-06T06:39:21.955Z,59.09
2018-03-06T06:41:54.421Z,59.20
2018-03-06T06:44:26.923Z,59.12
2018-03-06T06:46:59.395Z,59.06
2018-03-06T06:49:31.903Z,58.97
2018-03-06T06:52:04.640Z,59.26
2018-03-06T06:54:37.203Z,59.30
2018-03-06T06:57:09.756Z,59.18
2018-03-06T06:59:42.350Z,59.25
2018-03-06T07:02:14.974Z,59.21
2018-03-06T07:04:47.538Z,59.46
2018-03-06T07:07:20.030Z,59.14
2018-03-06T07:09:52.521Z,59.26
2018-03-06T07:12:24.999Z,59.12
2018-03-06T07:14:57.511Z,59.22
2018-03-06T07:17:29.989Z,59.21
2018-03-06T07:20:02.493Z,59.58
2018-03-06T07:22:35.554Z,59.66
2018-03-06T07:25:08.513Z,59.52
2018-03-06T07:27:41.054Z,59.20
2018-03-06T07:30:13.702Z,59.33
2018-03-06T07:32:46.297Z,59.85
2018-03-06T07:35:18.816Z,59.37
2018-03-06T07:37:51.299Z,59.34
2018-03-06T07:40:23.789Z,59.70
2018-03-06T07:42:56.258Z,59.97
2018-03-06T07:45:28.758Z,59.57
2018-03-06T07:48:01.230Z,59.56
2018-03-06T07:50:33.892Z,59.11
2018-03-06T07:53:06.832Z,59.08
2018-03-06T07:55:39.578Z,58.39
2018-03-06T07:58:12.134Z,58.78
2018-03-06T08:00:44.819Z,58.84
2018-03-06T08:03:17.402Z,58.94
2018-03-06T08:05:49.911Z,58.88
2018-03-06T08:08:22.399Z,57.86
2018-03-06T08:10:54.949Z,58.28
2018-03-06T08:13:27.387Z,58.33
2018-03-06T08:15:59.880Z,58.49
2018-03-06T08:18:32.395Z,57.81
2018-03-06T08:21:05.132Z,57.62
2018-03-06T08:23:38.142Z,57.37
2018-03-06T08:26:10.764Z,58.71
2018-03-06T08:28:43.353Z,57.94
2018-03-06T08:31:15.850Z,58.28
2018-03-06T08:33:48.343Z,57.07
2018-03-06T08:36:20.836Z,57.15
2018-03-06T08:38:53.310Z,57.05
2018-03-06T08:41:25.812Z,57.24
2018-03-06T08:43:58.290Z,56.70
2018-03-06T08:46:30.793Z,55.16
2018-03-06T08:49:03.270Z,54.53
2018-03-06T08:51:35.878Z,54.29
2018-03-06T08:54:08.467Z,55.19
2018-03-06T08:56:41.047Z,54.64
2018-03-06T08:59:13.564Z,54.18
2018-03-06T09:01:46.160Z,52.45
2018-03-06T09:04:18.634Z,54.88
2018-03-06T09:06:51.126Z,51.95
2018-03-06T09:09:23.608Z,52.72
2018-03-06T09:11:56.106Z,53.43
2018-03-06T09:14:28.583Z,52.84
2018-03-06T09:17:01.075Z,52.47
2018-03-06T09:19:33.765Z,52.29
2018-03-06T09:22:06.776Z,52.76
2018-03-06T09:24:39.334Z,52.88
2018-03-06T09:27:11.962Z,51.92
2018-03-06T09:29:44.595Z,53.53
2018-03-06T09:32:17.100Z,52.46
2018-03-06T09:34:49.580Z,51.72
2018-03-06T09:37:22.079Z,51.86
2018-03-06T09:39:54.558Z,50.99
2018-03-06T09:42:27.053Z,50.10
2018-03-06T09:44:59.526Z,50.00
2018-03-06T09:47:32.017Z,50.14
2018-03-06T09:50:04.663Z,50.13
2018-03-06T09:52:37.658Z,51.57
2018-03-06T09:55:10.200Z,51.14
2018-03-06T09:57:42.755Z,50.96
2018-03-06T10:00:15.247Z,50.48
2018-03-06T10:02:47.742Z,50.04
2018-03-06T10:05:20.279Z,49.65
2018-03-06T10:07:52.807Z,49.37
2018-03-06T10:10:25.335Z,50.84
2018-03-06T10:12:57.853Z,50.20
2018-03-06T10:15:30.387Z,49.90
2018-03-06T10:18:02.894Z,48.90
2018-03-06T10:20:35.696Z,48.44
2018-03-06T10:23:08.888Z,48.03
2018-03-06T10:25:41.542Z,49.27
2018-03-06T10:28:14.109Z,49.80
2018-03-06T10:30:46.676Z,49.68
2018-03-06T10:33:19.211Z,49.24
2018-03-06T10:35:51.742Z,48.62
2018-03-06T10:38:24.268Z,47.31
2018-03-06T10:40:56.800Z,48.50
2018-03-06T10:43:29.310Z,48.75
2018-03-06T10:46:01.847Z,48.51
2018-03-06T10:48:34.530Z,49.13
2018-03-06T10:51:07.167Z,48.96
2018-03-06T10:53:39.856Z,47.98
2018-03-06T10:56:12.461Z,49.34
2018-03-06T10:58:44.979Z,47.63
2018-03-06T11:01:23.030Z,46.52
2018-03-06T11:03:55.542Z,48.96
2018-03-06T11:06:28.034Z,48.34
2018-03-06T11:09:00.514Z,47.36
2018-03-06T11:11:33.016Z,48.40
2018-03-06T11:14:05.649Z,47.89
2018-03-06T11:16:38.212Z,47.99
2018-03-06T11:19:10.719Z,47.83
2018-03-06T11:21:43.348Z,47.55
2018-03-06T11:24:15.887Z,48.08
2018-03-06T11:26:48.411Z,48.31
2018-03-06T11:29:20.891Z,49.33
2018-03-06T11:31:53.389Z,48.44
2018-03-06T11:34:25.885Z,48.16
2018-03-06T11:36:58.379Z,48.12
2018-03-06T11:39:30.854Z,47.72
2018-03-06T11:42:03.355Z,47.76
2018-03-06T11:44:35.943Z,47.90
2018-03-06T11:47:08.969Z,46.78
2018-03-06T11:49:41.538Z,47.25
2018-03-06T11:52:14.069Z,47.11
2018-03-06T11:54:46.555Z,48.04
2018-03-06T11:57:19.045Z,47.21
2018-03-06T11:59:51.514Z,48.17
2018-03-06T12:02:24.006Z,47.63
2018-03-06T12:04:56.592Z,47.45
2018-03-06T12:07:29.099Z,47.05
2018-03-06T12:10:01.576Z,47.24
2018-03-06T12:12:34.123Z,45.68
2018-03-06T12:15:06.869Z,46.24
2018-03-06T12:17:39.519Z,45.77
2018-03-06T12:20:12.089Z,46.35
2018-03-06T12:22:44.611Z,46.09
2018-03-06T12:25:17.092Z,46.24
2018-03-06T12:27:49.587Z,46.08
2018-03-06T12:30:22.069Z,47.24
2018-03-06T12:32:54.571Z,45.80
2018-03-06T12:35:27.042Z,45.60
2018-03-06T12:37:59.546Z,44.99
2018-03-06T12:40:32.019Z,44.15
2018-03-06T12:43:04.775Z,43.09
2018-03-06T12:45:37.306Z,43.97
2018-03-06T12:48:09.868Z,43.53
2018-03-06T12:50:42.370Z,42.63
2018-03-06T12:53:14.861Z,44.23
2018-03-06T12:55:47.335Z,45.89
2018-03-06T12:58:19.821Z,44.58
2018-03-06T13:00:52.295Z,44.33
2018-03-06T13:03:24.794Z,45.00
2018-03-06T13:05:57.272Z,44.54
2018-03-06T13:08:29.758Z,44.92
2018-03-06T13:11:02.230Z,44.86
2018-03-06T13:13:34.773Z,44.42
2018-03-06T13:16:07.314Z,44.67
2018-03-06T13:18:39.941Z,44.72
2018-03-06T13:21:12.503Z,44.42
2018-03-06T13:23:44.990Z,44.52
2018-03-06T13:26:17.470Z,43.88
2018-03-06T13:28:49.965Z,44.32
2018-03-06T13:31:22.447Z,45.44
2018-03-06T13:33:54.943Z,45.25
2018-03-06T13:36:27.441Z,45.34
2018-03-06T13:38:59.933Z,44.71
2018-03-06T13:41:32.406Z,44.67
2018-03-06T13:44:05.017Z,44.64
2018-03-06T13:46:37.566Z,44.88
2018-03-06T13:49:10.118Z,44.33
2018-03-06T13:51:42.650Z,45.19
2018-03-06T13:54:15.146Z,45.92
2018-03-06T13:56:47.658Z,44.74
2018-03-06T13:59:20.134Z,44.11
2018-03-06T14:01:52.638Z,43.96
2018-03-06T14:04:25.114Z,44.02
2018-03-06T14:06:57.610Z,44.00
2018-03-06T14:09:30.082Z,45.32
2018-03-06T14:12:02.596Z,44.44
2018-03-06T14:14:35.184Z,44.46
2018-03-06T14:17:07.771Z,45.40
2018-03-06T14:19:40.264Z,44.34
2018-03-06T14:22:12.772Z,45.05
2018-03-06T14:24:45.237Z,45.14
2018-03-06T14:27:17.731Z,45.09
2018-03-06T14:29:50.197Z,44.92
2018-03-06T14:32:22.698Z,44.96
2018-03-06T14:34:55.166Z,45.01
2018-03-06T14:37:27.679Z,44.49
2018-03-06T14:40:00.145Z,44.58
2018-03-06T14:42:32.640Z,45.09
2018-03-06T14:45:05.195Z,45.32
2018-03-06T14:47:37.751Z,45.03
2018-03-06T14:50:10.261Z,46.41
2018-03-06T14:52:42.780Z,46.81
2018-03-06T14:55:15.256Z,46.93
2018-03-06T14:57:47.748Z,47.10
2018-03-06T15:00:20.230Z,47.45
2018-03-06T15:02:52.722Z,47.00
2018-03-06T15:05:25.188Z,47.18
2018-03-06T15:07:57.686Z,47.03
2018-03-06T15:10:30.169Z,47.42
2018-03-06T15:13:02.667Z,47.43
2018-03-06T15:15:35.266Z,47.27
2018-03-06T15:18:07.850Z,47.37
2018-03-06T15:20:40.379Z,47.50
2018-03-06T15:23:12.922Z,47.28
2018-03-06T15:25:45.409Z,48.45
2018-03-06T15:28:17.903Z,48.23
2018-03-06T15:30:50.391Z,49.06
2018-03-06T15:33:22.883Z,48.05
2018-03-06T15:35:55.354Z,47.90
2018-03-06T15:38:27.850Z,47.97
2018-03-06T15:41:00.328Z,48.11
2018-03-06T15:43:32.849Z,47.90
2018-03-06T15:46:05.474Z,47.91
2018-03-06T15:48:38.045Z,47.66
2018-03-06T15:51:10.586Z,47.07
2018-03-06T15:53:43.131Z,47.23
2018-03-06T15:56:15.626Z,47.38
2018-03-06T15:58:48.123Z,47.89
2018-03-06T16:01:20.598Z,47.72
2018-03-06T16:03:53.087Z,48.26
2018-03-06T16:06:25.561Z,48.34
2018-03-06T16:08:58.058Z,47.95
2018-03-06T16:11:30.538Z,47.81
2018-03-06T16:14:03.038Z,48.18
2018-03-06T16:16:35.571Z,48.04
2018-03-06T16:19:08.091Z,48.47
2018-03-06T16:21:40.631Z,48.79
2018-03-06T16:24:13.158Z,48.52
2018-03-06T16:26:45.652Z,48.55
2018-03-06T16:29:18.138Z,48.67
2018-03-06T16:31:50.614Z,48.55
2018-03-06T16:34:23.100Z,48.49
2018-03-06T16:36:55.570Z,48.82
2018-03-06T16:39:28.065Z,48.94
2018-03-06T16:42:00.538Z,49.16
2018-03-06T16:44:33.032Z,49.51
2018-03-06T16:47:05.538Z,49.48
2018-03-06T16:49:38.110Z,49.21
2018-03-06T16:52:10.597Z,49.03
2018-03-06T16:54:43.136Z,48.87
2018-03-06T16:57:15.622Z,48.78
2018-03-06T16:59:48.418Z,48.83
2018-03-06T17:02:20.935Z,49.00
2018-03-06T17:04:53.467Z,48.99
2018-03-06T17:07:26.007Z,49.28
2018-03-06T17:09:58.513Z,49.31
2018-03-06T17:12:31.057Z,49.54
2018-03-06T17:15:03.667Z,49.52
2018-03-06T17:17:36.202Z,49.85
2018-03-06T17:20:08.731Z,50.45
2018-03-06T17:22:41.275Z,50.50
2018-03-06T17:25:13.792Z,50.34
2018-03-06T17:27:46.273Z,50.41
2018-03-06T17:30:18.763Z,50.51
2018-03-06T17:32:51.245Z,50.88
2018-03-06T17:35:23.751Z,50.93
2018-03-06T17:37:56.227Z,50.79
2018-03-06T17:40:28.727Z,51.07
2018-03-06T17:43:01.194Z,51.33
2018-03-06T17:45:33.706Z,51.34
2018-03-06T17:48:06.287Z,51.29
2018-03-06T17:50:38.793Z,51.46
2018-03-06T17:53:11.302Z,51.54
2018-03-06T17:55:43.826Z,51.58
2018-03-06T17:58:16.294Z,51.98
2018-03-06T18:00:48.788Z,52.14
2018-03-06T18:03:21.262Z,52.01
2018-03-06T18:05:53.765Z,51.93
2018-03-06T18:08:26.230Z,51.92
2018-03-06T18:10:58.718Z,52.03
2018-03-06T18:13:31.183Z,51.97
2018-03-06T18:16:03.703Z,52.00
2018-03-06T18:18:36.230Z,51.96
2018-03-06T18:21:08.863Z,51.86
2018-03-06T18:23:41.374Z,51.83
2018-03-06T18:26:14.036Z,51.74
2018-03-06T18:28:46.581Z,51.72
2018-03-06T18:31:19.066Z,51.59
2018-03-06T18:33:51.564Z,51.57
2018-03-06T18:36:24.041Z,51.45
2018-03-06T18:38:56.534Z,51.72
2018-03-06T18:41:29.064Z,51.83
2018-03-06T18:44:01.557Z,51.87
2018-03-06T18:46:34.118Z,52.12
2018-03-06T18:49:06.658Z,52.17
2018-03-06T18:51:39.200Z,52.35
2018-03-06T18:54:11.933Z,52.47
2018-03-06T18:56:44.443Z,52.32
2018-03-06T18:59:16.930Z,52.16
2018-03-06T19:05:07.185Z,52.39
2018-03-06T19:07:39.677Z,52.48
2018-03-06T19:10:12.313Z,52.44
2018-03-06T19:12:44.805Z,52.58
2018-03-06T19:15:17.324Z,52.66
2018-03-06T19:17:49.809Z,52.89
2018-03-06T19:20:22.413Z,52.80
2018-03-06T19:22:54.980Z,52.74
2018-03-06T19:25:27.509Z,52.69
2018-03-06T19:28:00.007Z,52.65
2018-03-06T19:30:32.524Z,52.86
2018-03-06T19:33:05.023Z,52.94
2018-03-06T19:35:37.528Z,52.87
2018-03-06T19:38:10.039Z,52.87
2018-03-06T19:40:42.602Z,52.96
2018-03-06T19:43:15.093Z,53.14
2018-03-06T19:45:47.615Z,53.28
2018-03-06T19:48:20.121Z,53.39
2018-03-06T19:50:52.649Z,53.15
2018-03-06T19:53:25.249Z,53.29
2018-03-06T19:55:57.772Z,53.29
2018-03-06T19:58:30.273Z,53.28
2018-03-06T20:01:02.964Z,53.28
2018-03-06T20:03:35.463Z,53.48
2018-03-06T20:06:07.981Z,53.40
2018-03-06T20:08:40.478Z,53.41
2018-03-06T20:11:12.994Z,53.33
2018-03-06T20:13:45.492Z,53.52
2018-03-06T20:16:18.025Z,53.54
2018-03-06T20:18:55.943Z,53.41
2018-03-06T20:21:28.467Z,53.62
2018-03-06T20:24:06.695Z,53.71
2018-03-06T20:26:39.346Z,53.79
2018-03-06T20:29:11.837Z,53.79
2018-03-06T20:31:49.970Z,53.93
2018-03-06T20:34:22.464Z,53.98
2018-03-06T20:36:54.969Z,53.75
2018-03-06T20:39:32.998Z,53.67
2018-03-06T20:42:05.563Z,53.67
2018-03-06T20:44:38.058Z,53.82
2018-03-06T20:47:27.243Z,53.95
2018-03-06T20:49:59.738Z,54.20
2018-03-06T20:52:38.051Z,54.21
2018-03-06T20:55:11.325Z,54.03
2018-03-06T20:57:43.833Z,54.10
2018-03-06T21:00:16.353Z,54.20
2018-03-06T21:02:48.862Z,54.39
2018-03-06T21:05:21.362Z,54.42
2018-03-06T21:07:53.882Z,54.61
2018-03-06T21:10:26.382Z,54.54
2018-03-06T21:12:58.888Z,54.41
2018-03-06T21:15:31.381Z,54.56
2018-03-06T21:18:03.905Z,54.52
2018-03-06T21:20:36.399Z,54.55
2018-03-06T21:23:08.929Z,54.58
2018-03-06T21:25:41.422Z,54.54
2018-03-06T21:28:13.960Z,54.70
2018-03-06T21:30:46.449Z,54.53
2018-03-06T21:33:18.966Z,54.72
2018-03-06T21:35:51.462Z,54.84
2018-03-06T21:38:23.964Z,54.82
2018-03-06T21:40:56.453Z,55.02
2018-03-06T21:43:28.966Z,55.14
2018-03-06T21:46:01.482Z,55.14
2018-03-06T21:48:34.001Z,55.33
2018-03-06T21:51:06.517Z,55.38
2018-03-06T21:53:39.017Z,55.43
2018-03-06T21:56:11.533Z,55.37
2018-03-06T21:58:44.024Z,55.47
2018-03-06T22:01:16.542Z,55.61
2018-03-06T22:03:49.036Z,55.72
2018-03-06T22:06:21.549Z,55.40
2018-03-06T22:08:54.052Z,55.29
2018-03-06T22:11:26.562Z,55.56
2018-03-06T22:13:59.063Z,55.76
2018-03-06T22:16:31.578Z,55.79
2018-03-06T22:19:04.077Z,55.90
2018-03-06T22:21:36.594Z,55.43
2018-03-06T22:24:09.085Z,55.64
2018-03-06T22:26:41.603Z,55.68
2018-03-06T22:29:14.098Z,55.65
2018-03-06T22:31:46.615Z,55.70
2018-03-06T22:34:19.104Z,55.65
2018-03-06T22:36:51.614Z,55.49
2018-03-06T22:39:24.112Z,55.65
2018-03-06T22:41:56.633Z,55.53
2018-03-06T22:44:29.120Z,55.55
2018-03-06T22:47:01.630Z,55.66
2018-03-06T22:49:34.121Z,55.38
2018-03-06T22:52:06.628Z,55.48
2018-03-06T22:54:39.116Z,55.60
2018-03-06T22:57:11.620Z,55.61
2018-03-06T22:59:44.108Z,55.66
2018-03-06T23:02:16.623Z,55.38
2018-03-06T23:04:49.114Z,55.46
2018-03-06T23:07:21.634Z,55.43
2018-03-06T23:09:54.132Z,55.45
2018-03-06T23:12:26.646Z,55.49
2018-03-06T23:14:59.133Z,55.29
2018-03-06T23:17:31.646Z,55.13
2018-03-06T23:20:04.138Z,55.32
2018-03-06T23:22:36.651Z,55.39
2018-03-06T23:25:09.142Z,55.62
2018-03-06T23:27:41.658Z,55.77
2018-03-06T23:30:14.148Z,55.99
2018-03-06T23:32:46.677Z,56.16
2018-03-06T23:35:19.169Z,55.98
2018-03-06T23:37:51.681Z,56.10
2018-03-06T23:40:24.168Z,56.15
2018-03-06T23:42:56.686Z,56.21
2018-03-06T23:45:29.186Z,56.09
2018-03-06T23:48:01.715Z,55.93
2018-03-06T23:50:34.207Z,55.91
2018-03-06T23:53:06.721Z,55.91
2018-03-06T23:55:39.214Z,55.88
2018-03-06T23:58:11.727Z,55.80
